»·PEaware :: DAL213 KJFK-KSFO

DAL213 :: KJFK-KSFO

FLIGHT INFORMATION

Flight Status: Arrived
Operator:
Delta Air Lines
More flights by this operator :: More flights under this callsign
Pilot: Nico L. (9332)
Aircraft: BOEING 737-800
(B738)
More flights by this aircraft type
Origin: KJFK Kennedy Intl
United States
Destination: KSFO San Francisco Intl
United States
More flights between these airports :: More routes between these airports
Route: RBV Q430 AIR CREEP SPI KK57C KD54U ILC KROST OAL INYOE DYAMD5
File this flight plan on PilotEdge
Remarks: Full Motion 738 sim. twitch.tv / dal213
Altitude:
(Current/Filed)
32,000ft
Speed:
(Current/Filed)
300kts
Departed: 16-Dec-21 12:06 PM
Arrived: 16-Dec-21 01:36 PM
Distance/Time
Traveled:
2241nm/1:30
Distance/Time
To Go:
Arrived

Flight Plot

Page will automatically refresh every two minutes.

Flight plan parsing failed; only flown route is shown


Map Options




Map Legend


Flown Route
Filed Route
Departure Airport
Arrival Airport
Navaid (VOR, NDB)
Fix

Horizontal Profiles

Position Reports

Time Latitude Longitude Heading Altitude Ground
Speed
16-Dec-21 12:04 38.562450 -111.655249 260 32061ft 356kts
16-Dec-21 12:05 38.549547 -111.781088 259 32055ft 356kts
16-Dec-21 12:06 38.536557 -111.906389 260 32054ft 356kts
16-Dec-21 12:07 38.523440 -112.031582 260 32052ft 357kts
16-Dec-21 12:08 38.510108 -112.157507 260 32051ft 358kts
16-Dec-21 12:09 38.496640 -112.283398 259 32037ft 358kts
16-Dec-21 12:10 38.482986 -112.409701 259 32038ft 358kts
16-Dec-21 12:11 38.469207 -112.535884 260 32038ft 359kts
16-Dec-21 12:12 38.455239 -112.662490 260 32038ft 361kts
16-Dec-21 12:13 38.441133 -112.789065 260 32037ft 361kts
16-Dec-21 12:14 38.426853 -112.915956 259 32038ft 362kts
16-Dec-21 12:15 38.412334 -113.043640 259 32039ft 363kts
16-Dec-21 12:16 38.397703 -113.171082 259 32038ft 364kts
16-Dec-21 12:17 38.382917 -113.298573 259 32039ft 364kts
16-Dec-21 12:18 38.368000 -113.425984 259 32040ft 364kts
16-Dec-21 12:19 38.352875 -113.553915 259 32042ft 366kts
16-Dec-21 12:20 38.337639 -113.681622 259 32037ft 364kts
16-Dec-21 12:21 38.322307 -113.808848 259 32036ft 364kts
16-Dec-21 12:22 38.306783 -113.936492 259 32036ft 364kts
16-Dec-21 12:23 38.291177 -114.063600 259 32033ft 365kts
16-Dec-21 12:24 38.275373 -114.191199 259 32036ft 365kts
16-Dec-21 12:25 38.259375 -114.319044 259 32037ft 365kts
16-Dec-21 12:26 38.255292 -114.448471 272 32040ft 375kts
16-Dec-21 12:27 38.268901 -114.579930 273 32053ft 374kts
16-Dec-21 12:28 38.282017 -114.711701 273 32056ft 376kts
16-Dec-21 12:29 38.295157 -114.844024 273 32055ft 378kts
16-Dec-21 12:30 38.308206 -114.977203 273 32050ft 380kts
16-Dec-21 12:31 38.321108 -115.110420 273 32048ft 380kts
16-Dec-21 12:32 38.333928 -115.244414 273 32047ft 380kts
16-Dec-21 12:33 38.346596 -115.378450 273 32042ft 381kts
16-Dec-21 12:34 38.359120 -115.512699 273 32040ft 382kts
16-Dec-21 12:35 38.371561 -115.647690 273 32041ft 383kts
16-Dec-21 12:36 38.383811 -115.782359 273 32045ft 383kts
16-Dec-21 12:37 38.395908 -115.917075 273 32047ft 383kts
16-Dec-21 12:38 38.407886 -116.052245 273 32047ft 383kts
16-Dec-21 12:39 38.418451 -116.187219 266 32069ft 380kts
16-Dec-21 12:40 38.390313 -116.316663 252 32057ft 382kts
16-Dec-21 12:41 38.356787 -116.445414 253 32055ft 384kts
16-Dec-21 12:42 38.322988 -116.574891 253 32057ft 384kts
16-Dec-21 12:43 38.289146 -116.704067 253 32060ft 385kts
16-Dec-21 12:44 38.255141 -116.833114 253 32062ft 385kts
16-Dec-21 12:45 38.220788 -116.962868 253 32079ft 386kts
16-Dec-21 12:46 38.186436 -117.091917 253 32074ft 385kts
16-Dec-21 12:47 38.152001 -117.220684 254 32063ft 384kts
16-Dec-21 12:48 38.117383 -117.349395 254 32065ft 384kts
16-Dec-21 12:49 38.082746 -117.477629 254 32074ft 384kts
16-Dec-21 12:50 38.048032 -117.605424 254 32061ft 383kts
16-Dec-21 12:51 38.013239 -117.732912 254 32068ft 382kts
16-Dec-21 12:52 37.993160 -117.863800 264 32068ft 377kts
16-Dec-21 12:53 37.979421 -117.995440 264 32051ft 377kts
16-Dec-21 12:54 37.965401 -118.127040 264 32051ft 377kts
16-Dec-21 12:55 37.951183 -118.259311 264 32057ft 377kts
16-Dec-21 12:56 37.936826 -118.391182 264 32044ft 379kts
16-Dec-21 12:57 37.922312 -118.523263 264 32034ft 379kts
16-Dec-21 12:58 37.907546 -118.656203 264 32029ft 381kts
16-Dec-21 12:59 37.892617 -118.789168 263 32025ft 382kts
16-Dec-21 13:00 37.877509 -118.922456 263 32029ft 384kts
16-Dec-21 13:01 37.862168 -119.056339 263 32031ft 385kts
16-Dec-21 13:02 37.846600 -119.190853 263 32043ft 386kts
16-Dec-21 13:03 37.830865 -119.325379 263 32058ft 387kts
16-Dec-21 13:04 37.814961 -119.459987 263 32072ft 387kts
16-Dec-21 13:05 37.798840 -119.595103 263 32091ft 388kts
16-Dec-21 13:06 37.782604 -119.729832 263 32107ft 388kts
16-Dec-21 13:07 37.766201 -119.864578 263 32141ft 388kts
16-Dec-21 13:08 37.749645 -119.999300 263 32158ft 388kts
16-Dec-21 13:09 37.732866 -120.134503 263 32159ft 388kts
16-Dec-21 13:10 37.715923 -120.269128 263 31693ft 388kts
16-Dec-21 13:11 37.699427 -120.399506 262 29544ft 366kts
16-Dec-21 13:12 37.685182 -120.522837 264 27635ft 347kts
16-Dec-21 13:13 37.671219 -120.641285 264 25800ft 334kts
16-Dec-21 13:14 37.657756 -120.755224 265 24034ft 324kts
16-Dec-21 13:15 37.644299 -120.867161 265 22297ft 320kts
16-Dec-21 13:16 37.630905 -120.977395 265 20279ft 320kts
16-Dec-21 13:17 37.615993 -121.087203 265 17940ft 300kts
16-Dec-21 13:18 37.602504 -121.188716 265 16280ft 291kts
16-Dec-21 13:19 37.589231 -121.288295 265 14842ft 282kts
16-Dec-21 13:20 37.577990 -121.390392 265 13389ft 288kts
16-Dec-21 13:21 37.565890 -121.494000 264 11912ft 287kts
16-Dec-21 13:22 37.554094 -121.595287 264 10821ft 283kts
16-Dec-21 13:23 37.535595 -121.688182 255 9751ft 264kts
16-Dec-21 13:24 37.515224 -121.773567 255 8583ft 242kts
16-Dec-21 13:25 37.497158 -121.848974 255 7733ft 217kts
16-Dec-21 13:26 37.478912 -121.920613 253 6630ft 213kts
16-Dec-21 13:27 37.463685 -121.991765 265 5576ft 208kts
16-Dec-21 13:28 37.485017 -122.057399 297 4368ft 204kts
16-Dec-21 13:29 37.510425 -122.117501 297 4005ft 183kts
16-Dec-21 13:30 37.533913 -122.173277 296 3259ft 177kts
16-Dec-21 13:31 37.555241 -122.223893 297 2390ft 156kts
16-Dec-21 13:33 37.574457 -122.269565 297 1614ft 140kts
16-Dec-21 13:34 37.592840 -122.313313 298 858ft 144kts
16-Dec-21 13:35 37.611609 -122.358094 298 104ft 146kts
16-Dec-21 13:36 37.621702 -122.382655 258 22ft 13kts
16-Dec-21 13:37 37.621331 -122.383159 195 22ft 0kts
16-Dec-21 13:38 37.620767 -122.383361 195 22ft 0kts

Navigation Log

Ident Type
Flight plan parsing failed, navigation log unavailable